sensor_id;sensor_type;location;lat;lon;timestamp;P1;durP1;ratioP1;P2;durP2;ratioP2
85035;SDS011;75357;49.780;9.448;2024-02-21T00:01:27;10.77;;;3.43;;
85035;SDS011;75357;49.780;9.448;2024-02-21T00:03:56;9.27;;;3.90;;
85035;SDS011;75357;49.780;9.448;2024-02-21T00:06:27;11.23;;;3.67;;
85035;SDS011;75357;49.780;9.448;2024-02-21T00:08:55;12.77;;;4.17;;
85035;SDS011;75357;49.780;9.448;2024-02-21T00:11:24;9.87;;;3.57;;
85035;SDS011;75357;49.780;9.448;2024-02-21T00:13:53;12.40;;;4.23;;
85035;SDS011;75357;49.780;9.448;2024-02-21T00:16:22;12.53;;;3.67;;
85035;SDS011;75357;49.780;9.448;2024-02-21T00:18:51;13.17;;;3.20;;
85035;SDS011;75357;49.780;9.448;2024-02-21T00:21:20;8.87;;;3.17;;
85035;SDS011;75357;49.780;9.448;2024-02-21T00:23:52;12.50;;;3.90;;
85035;SDS011;75357;49.780;9.448;2024-02-21T00:26:21;10.60;;;3.70;;
85035;SDS011;75357;49.780;9.448;2024-02-21T00:28:50;12.63;;;4.00;;
85035;SDS011;75357;49.780;9.448;2024-02-21T00:31:19;12.53;;;4.00;;
85035;SDS011;75357;49.780;9.448;2024-02-21T00:33:48;12.93;;;4.10;;
85035;SDS011;75357;49.780;9.448;2024-02-21T00:36:17;9.83;;;4.00;;
85035;SDS011;75357;49.780;9.448;2024-02-21T00:38:46;12.13;;;3.47;;
85035;SDS011;75357;49.780;9.448;2024-02-21T00:41:16;5.27;;;2.10;;
85035;SDS011;75357;49.780;9.448;2024-02-21T00:43:45;13.80;;;4.17;;
85035;SDS011;75357;49.780;9.448;2024-02-21T00:46:15;8.10;;;3.40;;
85035;SDS011;75357;49.780;9.448;2024-02-21T00:48:44;10.63;;;4.23;;
85035;SDS011;75357;49.780;9.448;2024-02-21T00:51:13;16.57;;;4.27;;
85035;SDS011;75357;49.780;9.448;2024-02-21T00:53:42;12.37;;;4.20;;
85035;SDS011;75357;49.780;9.448;2024-02-21T00:56:11;7.77;;;4.33;;
85035;SDS011;75357;49.780;9.448;2024-02-21T00:58:41;9.83;;;3.73;;
85035;SDS011;75357;49.780;9.448;2024-02-21T01:01:10;11.33;;;4.73;;
85035;SDS011;75357;49.780;9.448;2024-02-21T01:03:40;10.57;;;4.17;;
85035;SDS011;75357;49.780;9.448;2024-02-21T01:06:09;11.20;;;4.53;;
85035;SDS011;75357;49.780;9.448;2024-02-21T01:08:38;11.27;;;4.00;;
85035;SDS011;75357;49.780;9.448;2024-02-21T01:11:07;10.63;;;3.70;;
85035;SDS011;75357;49.780;9.448;2024-02-21T01:13:36;8.57;;;3.87;;
85035;SDS011;75357;49.780;9.448;2024-02-21T01:16:07;10.70;;;4.00;;
85035;SDS011;75357;49.780;9.448;2024-02-21T01:18:36;11.40;;;4.13;;
85035;SDS011;75357;49.780;9.448;2024-02-21T01:21:06;11.80;;;3.93;;
85035;SDS011;75357;49.780;9.448;2024-02-21T01:23:37;12.23;;;4.13;;
85035;SDS011;75357;49.780;9.448;2024-02-21T01:26:06;10.60;;;4.30;;
85035;SDS011;75357;49.780;9.448;2024-02-21T01:28:35;10.53;;;4.03;;
85035;SDS011;75357;49.780;9.448;2024-02-21T01:31:04;10.60;;;4.10;;
85035;SDS011;75357;49.780;9.448;2024-02-21T01:33:35;9.90;;;4.37;;
85035;SDS011;75357;49.780;9.448;2024-02-21T01:36:05;10.33;;;4.27;;
85035;SDS011;75357;49.780;9.448;2024-02-21T01:38:35;14.40;;;4.40;;
85035;SDS011;75357;49.780;9.448;2024-02-21T01:41:04;9.93;;;4.40;;
85035;SDS011;75357;49.780;9.448;2024-02-21T01:43:33;11.70;;;4.80;;
85035;SDS011;75357;49.780;9.448;2024-02-21T01:46:02;12.13;;;4.50;;
85035;SDS011;75357;49.780;9.448;2024-02-21T01:48:32;11.50;;;4.70;;
85035;SDS011;75357;49.780;9.448;2024-02-21T01:51:03;14.90;;;4.47;;
85035;SDS011;75357;49.780;9.448;2024-02-21T01:53:34;10.40;;;3.80;;
85035;SDS011;75357;49.780;9.448;2024-02-21T01:56:05;9.47;;;4.03;;
85035;SDS011;75357;49.780;9.448;2024-02-21T01:58:35;13.77;;;4.17;;
85035;SDS011;75357;49.780;9.448;2024-02-21T02:01:06;11.10;;;3.97;;
85035;SDS011;75357;49.780;9.448;2024-02-21T02:03:35;11.67;;;4.10;;
85035;SDS011;75357;49.780;9.448;2024-02-21T02:06:06;14.10;;;4.80;;
85035;SDS011;75357;49.780;9.448;2024-02-21T02:08:35;10.20;;;4.10;;
85035;SDS011;75357;49.780;9.448;2024-02-21T02:11:04;10.27;;;4.30;;
85035;SDS011;75357;49.780;9.448;2024-02-21T02:13:34;10.97;;;4.43;;
85035;SDS011;75357;49.780;9.448;2024-02-21T02:16:04;12.80;;;4.90;;
85035;SDS011;75357;49.780;9.448;2024-02-21T02:18:34;10.00;;;4.17;;
85035;SDS011;75357;49.780;9.448;2024-02-21T02:21:04;14.47;;;5.10;;
85035;SDS011;75357;49.780;9.448;2024-02-21T02:23:41;10.20;;;3.93;;
85035;SDS011;75357;49.780;9.448;2024-02-21T02:26:10;9.80;;;4.33;;
85035;SDS011;75357;49.780;9.448;2024-02-21T02:28:38;11.37;;;4.73;;
85035;SDS011;75357;49.780;9.448;2024-02-21T02:31:07;9.07;;;4.13;;
85035;SDS011;75357;49.780;9.448;2024-02-21T02:33:35;13.13;;;4.70;;
85035;SDS011;75357;49.780;9.448;2024-02-21T02:36:04;11.77;;;4.50;;
85035;SDS011;75357;49.780;9.448;2024-02-21T02:38:33;14.60;;;5.30;;
85035;SDS011;75357;49.780;9.448;2024-02-21T02:41:03;16.53;;;5.07;;
85035;SDS011;75357;49.780;9.448;2024-02-21T02:43:31;11.60;;;4.90;;
85035;SDS011;75357;49.780;9.448;2024-02-21T02:45:59;9.80;;;4.80;;
85035;SDS011;75357;49.780;9.448;2024-02-21T02:48:28;12.47;;;4.60;;
85035;SDS011;75357;49.780;9.448;2024-02-21T02:50:57;11.13;;;5.20;;
85035;SDS011;75357;49.780;9.448;2024-02-21T02:53:25;14.33;;;5.03;;
85035;SDS011;75357;49.780;9.448;2024-02-21T02:55:53;13.90;;;5.10;;
85035;SDS011;75357;49.780;9.448;2024-02-21T02:58:24;12.03;;;5.17;;
85035;SDS011;75357;49.780;9.448;2024-02-21T03:00:52;13.43;;;4.70;;
85035;SDS011;75357;49.780;9.448;2024-02-21T03:03:20;12.40;;;4.60;;
85035;SDS011;75357;49.780;9.448;2024-02-21T03:05:49;12.13;;;4.50;;
85035;SDS011;75357;49.780;9.448;2024-02-21T03:08:17;9.33;;;4.30;;
85035;SDS011;75357;49.780;9.448;2024-02-21T03:10:45;9.97;;;4.80;;
85035;SDS011;75357;49.780;9.448;2024-02-21T03:13:15;12.43;;;5.10;;
85035;SDS011;75357;49.780;9.448;2024-02-21T03:15:44;11.23;;;4.77;;
85035;SDS011;75357;49.780;9.448;2024-02-21T03:18:13;12.83;;;4.50;;
85035;SDS011;75357;49.780;9.448;2024-02-21T03:20:41;10.57;;;4.93;;
85035;SDS011;75357;49.780;9.448;2024-02-21T03:23:10;9.83;;;4.57;;
85035;SDS011;75357;49.780;9.448;2024-02-21T03:25:38;13.17;;;5.10;;
85035;SDS011;75357;49.780;9.448;2024-02-21T03:28:07;9.70;;;4.57;;
85035;SDS011;75357;49.780;9.448;2024-02-21T03:30:35;12.37;;;4.70;;
85035;SDS011;75357;49.780;9.448;2024-02-21T03:33:05;10.80;;;5.00;;
85035;SDS011;75357;49.780;9.448;2024-02-21T03:35:33;10.63;;;4.63;;
85035;SDS011;75357;49.780;9.448;2024-02-21T03:38:02;10.87;;;5.23;;
85035;SDS011;75357;49.780;9.448;2024-02-21T03:40:30;10.47;;;4.47;;
85035;SDS011;75357;49.780;9.448;2024-02-21T03:42:59;11.93;;;4.97;;
85035;SDS011;75357;49.780;9.448;2024-02-21T03:45:30;11.57;;;4.83;;
85035;SDS011;75357;49.780;9.448;2024-02-21T03:47:59;11.90;;;4.40;;
85035;SDS011;75357;49.780;9.448;2024-02-21T03:50:29;10.53;;;4.60;;
85035;SDS011;75357;49.780;9.448;2024-02-21T03:52:58;13.67;;;4.80;;
85035;SDS011;75357;49.780;9.448;2024-02-21T03:55:26;11.63;;;5.00;;
85035;SDS011;75357;49.780;9.448;2024-02-21T03:57:55;10.73;;;4.90;;
85035;SDS011;75357;49.780;9.448;2024-02-21T04:00:23;13.07;;;5.23;;
85035;SDS011;75357;49.780;9.448;2024-02-21T04:02:51;12.13;;;4.90;;
85035;SDS011;75357;49.780;9.448;2024-02-21T04:05:20;10.33;;;5.13;;
85035;SDS011;75357;49.780;9.448;2024-02-21T04:07:50;12.60;;;5.10;;
85035;SDS011;75357;49.780;9.448;2024-02-21T04:10:19;10.90;;;4.90;;
85035;SDS011;75357;49.780;9.448;2024-02-21T04:12:48;14.10;;;5.30;;
85035;SDS011;75357;49.780;9.448;2024-02-21T04:15:17;11.40;;;4.97;;
85035;SDS011;75357;49.780;9.448;2024-02-21T04:17:49;11.87;;;5.30;;
85035;SDS011;75357;49.780;9.448;2024-02-21T04:20:21;14.97;;;6.40;;
85035;SDS011;75357;49.780;9.448;2024-02-21T04:22:51;11.00;;;5.73;;
85035;SDS011;75357;49.780;9.448;2024-02-21T04:25:21;12.03;;;6.23;;
85035;SDS011;75357;49.780;9.448;2024-02-21T04:27:50;9.63;;;5.50;;
85035;SDS011;75357;49.780;9.448;2024-02-21T04:30:19;15.07;;;6.27;;
85035;SDS011;75357;49.780;9.448;2024-02-21T04:32:48;17.93;;;8.90;;
85035;SDS011;75357;49.780;9.448;2024-02-21T04:35:17;24.83;;;12.33;;
85035;SDS011;75357;49.780;9.448;2024-02-21T04:37:46;22.97;;;9.67;;
85035;SDS011;75357;49.780;9.448;2024-02-21T04:40:16;23.17;;;8.20;;
85035;SDS011;75357;49.780;9.448;2024-02-21T04:42:46;12.87;;;6.20;;
85035;SDS011;75357;49.780;9.448;2024-02-21T04:45:14;42.03;;;23.83;;
85035;SDS011;75357;49.780;9.448;2024-02-21T04:47:42;16.47;;;8.90;;
85035;SDS011;75357;49.780;9.448;2024-02-21T04:50:11;17.93;;;7.37;;
85035;SDS011;75357;49.780;9.448;2024-02-21T04:52:40;17.90;;;8.17;;
85035;SDS011;75357;49.780;9.448;2024-02-21T04:55:09;15.27;;;7.30;;
85035;SDS011;75357;49.780;9.448;2024-02-21T04:57:42;12.33;;;5.63;;
85035;SDS011;75357;49.780;9.448;2024-02-21T05:00:10;23.83;;;12.00;;
85035;SDS011;75357;49.780;9.448;2024-02-21T05:02:39;91.23;;;40.33;;
85035;SDS011;75357;49.780;9.448;2024-02-21T05:05:08;69.87;;;30.37;;
85035;SDS011;75357;49.780;9.448;2024-02-21T05:07:38;17.90;;;7.57;;
85035;SDS011;75357;49.780;9.448;2024-02-21T05:10:07;20.90;;;10.17;;
85035;SDS011;75357;49.780;9.448;2024-02-21T05:12:36;19.37;;;9.63;;
85035;SDS011;75357;49.780;9.448;2024-02-21T05:15:06;19.63;;;10.57;;
85035;SDS011;75357;49.780;9.448;2024-02-21T05:17:35;19.50;;;9.60;;
85035;SDS011;75357;49.780;9.448;2024-02-21T05:20:05;16.57;;;6.53;;
85035;SDS011;75357;49.780;9.448;2024-02-21T05:22:34;12.53;;;7.07;;
85035;SDS011;75357;49.780;9.448;2024-02-21T05:25:02;12.50;;;6.20;;
85035;SDS011;75357;49.780;9.448;2024-02-21T05:27:30;14.33;;;6.87;;
85035;SDS011;75357;49.780;9.448;2024-02-21T05:30:02;14.43;;;6.60;;
85035;SDS011;75357;49.780;9.448;2024-02-21T05:32:34;13.67;;;6.03;;
85035;SDS011;75357;49.780;9.448;2024-02-21T05:35:03;11.80;;;6.47;;
85035;SDS011;75357;49.780;9.448;2024-02-21T05:37:31;21.60;;;8.23;;
85035;SDS011;75357;49.780;9.448;2024-02-21T05:40:00;17.57;;;7.80;;
85035;SDS011;75357;49.780;9.448;2024-02-21T05:42:28;13.60;;;6.57;;
85035;SDS011;75357;49.780;9.448;2024-02-21T05:44:56;12.77;;;6.80;;
85035;SDS011;75357;49.780;9.448;2024-02-21T05:47:25;14.03;;;6.43;;
85035;SDS011;75357;49.780;9.448;2024-02-21T05:50:00;44.63;;;24.63;;
85035;SDS011;75357;49.780;9.448;2024-02-21T05:52:29;15.53;;;8.97;;
85035;SDS011;75357;49.780;9.448;2024-02-21T05:54:57;15.50;;;7.53;;
85035;SDS011;75357;49.780;9.448;2024-02-21T05:57:26;14.50;;;7.27;;
85035;SDS011;75357;49.780;9.448;2024-02-21T05:59:54;17.77;;;7.17;;
85035;SDS011;75357;49.780;9.448;2024-02-21T06:02:23;15.20;;;8.17;;
85035;SDS011;75357;49.780;9.448;2024-02-21T06:04:52;15.33;;;6.67;;
85035;SDS011;75357;49.780;9.448;2024-02-21T06:07:22;18.53;;;8.27;;
85035;SDS011;75357;49.780;9.448;2024-02-21T06:09:51;17.83;;;10.10;;
85035;SDS011;75357;49.780;9.448;2024-02-21T06:12:19;25.30;;;13.63;;
85035;SDS011;75357;49.780;9.448;2024-02-21T06:14:47;20.87;;;11.07;;
85035;SDS011;75357;49.780;9.448;2024-02-21T06:17:16;21.70;;;12.83;;
85035;SDS011;75357;49.780;9.448;2024-02-21T06:19:44;21.13;;;11.60;;
85035;SDS011;75357;49.780;9.448;2024-02-21T06:22:15;21.27;;;10.73;;
85035;SDS011;75357;49.780;9.448;2024-02-21T06:24:45;13.07;;;8.17;;
85035;SDS011;75357;49.780;9.448;2024-02-21T06:27:13;18.40;;;8.00;;
85035;SDS011;75357;49.780;9.448;2024-02-21T06:29:42;15.13;;;8.37;;
85035;SDS011;75357;49.780;9.448;2024-02-21T06:32:11;16.90;;;8.70;;
85035;SDS011;75357;49.780;9.448;2024-02-21T06:34:39;14.20;;;8.37;;
85035;SDS011;75357;49.780;9.448;2024-02-21T06:37:08;14.13;;;8.73;;
85035;SDS011;75357;49.780;9.448;2024-02-21T06:39:37;16.97;;;8.27;;
85035;SDS011;75357;49.780;9.448;2024-02-21T06:42:08;13.07;;;7.07;;
85035;SDS011;75357;49.780;9.448;2024-02-21T06:44:37;13.93;;;6.03;;
85035;SDS011;75357;49.780;9.448;2024-02-21T06:47:07;11.33;;;6.50;;
85035;SDS011;75357;49.780;9.448;2024-02-21T06:49:34;11.83;;;6.30;;
85035;SDS011;75357;49.780;9.448;2024-02-21T06:52:06;12.67;;;7.10;;
85035;SDS011;75357;49.780;9.448;2024-02-21T06:54:34;14.13;;;7.57;;
85035;SDS011;75357;49.780;9.448;2024-02-21T06:57:02;15.53;;;8.10;;
85035;SDS011;75357;49.780;9.448;2024-02-21T06:59:33;14.53;;;8.70;;
85035;SDS011;75357;49.780;9.448;2024-02-21T07:02:01;16.67;;;9.40;;
85035;SDS011;75357;49.780;9.448;2024-02-21T07:04:33;14.40;;;8.60;;
85035;SDS011;75357;49.780;9.448;2024-02-21T07:07:01;23.10;;;10.50;;
85035;SDS011;75357;49.780;9.448;2024-02-21T07:09:30;16.53;;;10.37;;
85035;SDS011;75357;49.780;9.448;2024-02-21T07:11:59;20.60;;;10.53;;
85035;SDS011;75357;49.780;9.448;2024-02-21T07:14:27;17.57;;;11.23;;
85035;SDS011;75357;49.780;9.448;2024-02-21T07:16:57;16.77;;;10.23;;
85035;SDS011;75357;49.780;9.448;2024-02-21T07:19:28;19.57;;;10.13;;
85035;SDS011;75357;49.780;9.448;2024-02-21T07:21:57;18.93;;;9.40;;
85035;SDS011;75357;49.780;9.448;2024-02-21T07:24:25;18.70;;;10.23;;
85035;SDS011;75357;49.780;9.448;2024-02-21T07:26:54;19.17;;;10.03;;
85035;SDS011;75357;49.780;9.448;2024-02-21T07:29:22;19.03;;;10.23;;
85035;SDS011;75357;49.780;9.448;2024-02-21T07:31:50;16.83;;;9.60;;
85035;SDS011;75357;49.780;9.448;2024-02-21T07:34:21;15.70;;;9.53;;
85035;SDS011;75357;49.780;9.448;2024-02-21T07:36:49;15.50;;;8.00;;
85035;SDS011;75357;49.780;9.448;2024-02-21T07:39:18;15.77;;;7.77;;
85035;SDS011;75357;49.780;9.448;2024-02-21T07:41:47;16.17;;;7.00;;
85035;SDS011;75357;49.780;9.448;2024-02-21T07:44:15;16.40;;;8.77;;
85035;SDS011;75357;49.780;9.448;2024-02-21T07:46:47;16.03;;;6.37;;
85035;SDS011;75357;49.780;9.448;2024-02-21T07:49:15;10.80;;;6.00;;
85035;SDS011;75357;49.780;9.448;2024-02-21T07:51:45;28.60;;;15.80;;
85035;SDS011;75357;49.780;9.448;2024-02-21T07:54:14;41.17;;;26.07;;
85035;SDS011;75357;49.780;9.448;2024-02-21T07:56:43;28.77;;;17.90;;
85035;SDS011;75357;49.780;9.448;2024-02-21T07:59:12;26.10;;;13.13;;
85035;SDS011;75357;49.780;9.448;2024-02-21T08:01:43;17.20;;;9.90;;
85035;SDS011;75357;49.780;9.448;2024-02-21T08:04:13;13.73;;;7.03;;
85035;SDS011;75357;49.780;9.448;2024-02-21T08:06:42;9.93;;;4.73;;
85035;SDS011;75357;49.780;9.448;2024-02-21T08:09:13;12.97;;;4.80;;
85035;SDS011;75357;49.780;9.448;2024-02-21T08:11:41;11.50;;;5.50;;
85035;SDS011;75357;49.780;9.448;2024-02-21T08:14:09;13.57;;;6.33;;
85035;SDS011;75357;49.780;9.448;2024-02-21T08:16:37;10.40;;;4.93;;
85035;SDS011;75357;49.780;9.448;2024-02-21T08:19:06;10.60;;;4.57;;
85035;SDS011;75357;49.780;9.448;2024-02-21T08:21:34;13.17;;;4.60;;
85035;SDS011;75357;49.780;9.448;2024-02-21T08:24:03;11.33;;;4.90;;
85035;SDS011;75357;49.780;9.448;2024-02-21T08:26:33;10.87;;;5.07;;
85035;SDS011;75357;49.780;9.448;2024-02-21T08:29:02;9.17;;;4.60;;
85035;SDS011;75357;49.780;9.448;2024-02-21T08:31:31;9.57;;;4.50;;
85035;SDS011;75357;49.780;9.448;2024-02-21T08:34:00;9.77;;;4.27;;
85035;SDS011;75357;49.780;9.448;2024-02-21T08:36:30;15.47;;;4.63;;
85035;SDS011;75357;49.780;9.448;2024-02-21T08:38:59;11.53;;;4.50;;
85035;SDS011;75357;49.780;9.448;2024-02-21T08:41:30;11.43;;;4.47;;
85035;SDS011;75357;49.780;9.448;2024-02-21T08:44:23;7.77;;;3.33;;
85035;SDS011;75357;49.780;9.448;2024-02-21T08:46:53;9.50;;;4.13;;
85035;SDS011;75357;49.780;9.448;2024-02-21T08:49:22;11.20;;;4.03;;
85035;SDS011;75357;49.780;9.448;2024-02-21T08:51:59;8.60;;;3.47;;
85035;SDS011;75357;49.780;9.448;2024-02-21T08:54:28;7.07;;;3.23;;
85035;SDS011;75357;49.780;9.448;2024-02-21T08:56:56;7.43;;;3.57;;
85035;SDS011;75357;49.780;9.448;2024-02-21T08:59:28;11.40;;;3.90;;
85035;SDS011;75357;49.780;9.448;2024-02-21T09:01:56;7.33;;;3.30;;
85035;SDS011;75357;49.780;9.448;2024-02-21T09:04:25;12.97;;;3.60;;
85035;SDS011;75357;49.780;9.448;2024-02-21T09:06:53;9.00;;;3.30;;
85035;SDS011;75357;49.780;9.448;2024-02-21T09:09:21;6.07;;;2.97;;
85035;SDS011;75357;49.780;9.448;2024-02-21T09:11:53;9.70;;;4.13;;
85035;SDS011;75357;49.780;9.448;2024-02-21T09:14:22;11.43;;;3.90;;
85035;SDS011;75357;49.780;9.448;2024-02-21T09:16:52;9.13;;;3.43;;
85035;SDS011;75357;49.780;9.448;2024-02-21T09:19:22;8.60;;;3.37;;
85035;SDS011;75357;49.780;9.448;2024-02-21T09:21:51;6.77;;;2.90;;
85035;SDS011;75357;49.780;9.448;2024-02-21T09:24:19;10.20;;;3.27;;
85035;SDS011;75357;49.780;9.448;2024-02-21T09:26:47;10.40;;;3.10;;
85035;SDS011;75357;49.780;9.448;2024-02-21T09:29:16;9.97;;;3.33;;
85035;SDS011;75357;49.780;9.448;2024-02-21T09:31:46;7.33;;;2.73;;
85035;SDS011;75357;49.780;9.448;2024-02-21T09:34:16;9.53;;;2.70;;
85035;SDS011;75357;49.780;9.448;2024-02-21T09:36:45;7.13;;;2.70;;
85035;SDS011;75357;49.780;9.448;2024-02-21T09:39:16;10.27;;;3.47;;
85035;SDS011;75357;49.780;9.448;2024-02-21T09:41:47;13.17;;;3.67;;
85035;SDS011;75357;49.780;9.448;2024-02-21T09:44:22;6.87;;;3.13;;
85035;SDS011;75357;49.780;9.448;2024-02-21T09:46:52;10.57;;;2.97;;
85035;SDS011;75357;49.780;9.448;2024-02-21T09:49:29;7.63;;;2.93;;
85035;SDS011;75357;49.780;9.448;2024-02-21T09:52:01;10.83;;;3.10;;
85035;SDS011;75357;49.780;9.448;2024-02-21T09:54:30;8.70;;;2.80;;
85035;SDS011;75357;49.780;9.448;2024-02-21T09:57:00;8.77;;;2.93;;
85035;SDS011;75357;49.780;9.448;2024-02-21T09:59:31;8.77;;;2.87;;
85035;SDS011;75357;49.780;9.448;2024-02-21T10:02:00;10.53;;;3.07;;
85035;SDS011;75357;49.780;9.448;2024-02-21T10:04:33;8.77;;;3.27;;
85035;SDS011;75357;49.780;9.448;2024-02-21T10:07:02;6.37;;;2.80;;
85035;SDS011;75357;49.780;9.448;2024-02-21T10:09:31;6.60;;;2.93;;
85035;SDS011;75357;49.780;9.448;2024-02-21T10:12:07;7.30;;;2.93;;
85035;SDS011;75357;49.780;9.448;2024-02-21T10:14:36;7.83;;;2.40;;
85035;SDS011;75357;49.780;9.448;2024-02-21T10:17:05;7.03;;;2.77;;
85035;SDS011;75357;49.780;9.448;2024-02-21T10:19:38;7.27;;;2.60;;
85035;SDS011;75357;49.780;9.448;2024-02-21T10:22:07;8.93;;;2.40;;
85035;SDS011;75357;49.780;9.448;2024-02-21T10:24:37;9.90;;;2.43;;
85035;SDS011;75357;49.780;9.448;2024-02-21T10:27:08;8.97;;;2.40;;
85035;SDS011;75357;49.780;9.448;2024-02-21T10:29:38;9.27;;;3.13;;
85035;SDS011;75357;49.780;9.448;2024-02-21T10:32:08;5.97;;;2.33;;
85035;SDS011;75357;49.780;9.448;2024-02-21T10:34:40;6.40;;;2.40;;
85035;SDS011;75357;49.780;9.448;2024-02-21T10:37:11;9.10;;;2.37;;
85035;SDS011;75357;49.780;9.448;2024-02-21T10:39:40;8.67;;;2.77;;
85035;SDS011;75357;49.780;9.448;2024-02-21T10:42:10;7.57;;;2.47;;
85035;SDS011;75357;49.780;9.448;2024-02-21T10:44:40;8.70;;;2.50;;
85035;SDS011;75357;49.780;9.448;2024-02-21T10:47:10;6.27;;;2.10;;
85035;SDS011;75357;49.780;9.448;2024-02-21T10:49:41;9.80;;;2.53;;
85035;SDS011;75357;49.780;9.448;2024-02-21T10:52:15;6.67;;;2.10;;
85035;SDS011;75357;49.780;9.448;2024-02-21T10:54:51;8.37;;;2.60;;
85035;SDS011;75357;49.780;9.448;2024-02-21T10:57:24;7.00;;;2.20;;
85035;SDS011;75357;49.780;9.448;2024-02-21T10:59:54;6.17;;;2.40;;
85035;SDS011;75357;49.780;9.448;2024-02-21T11:02:23;7.90;;;2.63;;
85035;SDS011;75357;49.780;9.448;2024-02-21T11:04:54;9.33;;;2.50;;
85035;SDS011;75357;49.780;9.448;2024-02-21T11:07:23;5.77;;;2.33;;
85035;SDS011;75357;49.780;9.448;2024-02-21T11:09:52;7.37;;;2.43;;
85035;SDS011;75357;49.780;9.448;2024-02-21T11:12:23;7.77;;;2.33;;
85035;SDS011;75357;49.780;9.448;2024-02-21T11:14:52;7.77;;;2.80;;
85035;SDS011;75357;49.780;9.448;2024-02-21T11:17:20;16.37;;;12.13;;
85035;SDS011;75357;49.780;9.448;2024-02-21T11:19:54;9.67;;;2.63;;
85035;SDS011;75357;49.780;9.448;2024-02-21T11:22:22;16.27;;;11.33;;
85035;SDS011;75357;49.780;9.448;2024-02-21T11:25:05;7.80;;;2.50;;
85035;SDS011;75357;49.780;9.448;2024-02-21T11:27:36;6.40;;;2.30;;
85035;SDS011;75357;49.780;9.448;2024-02-21T11:30:05;8.10;;;2.50;;
85035;SDS011;75357;49.780;9.448;2024-02-21T11:32:34;9.43;;;2.37;;
85035;SDS011;75357;49.780;9.448;2024-02-21T11:35:05;5.97;;;2.00;;
85035;SDS011;75357;49.780;9.448;2024-02-21T11:37:35;7.40;;;3.23;;
85035;SDS011;75357;49.780;9.448;2024-02-21T11:40:04;5.17;;;2.10;;
85035;SDS011;75357;49.780;9.448;2024-02-21T11:42:38;7.80;;;2.27;;
85035;SDS011;75357;49.780;9.448;2024-02-21T11:45:07;6.03;;;2.40;;
85035;SDS011;75357;49.780;9.448;2024-02-21T11:47:36;5.67;;;2.10;;
85035;SDS011;75357;49.780;9.448;2024-02-21T11:50:11;6.17;;;2.23;;
85035;SDS011;75357;49.780;9.448;2024-02-21T11:52:42;7.97;;;2.33;;
85035;SDS011;75357;49.780;9.448;2024-02-21T11:55:12;8.13;;;2.27;;
85035;SDS011;75357;49.780;9.448;2024-02-21T11:57:40;8.47;;;2.10;;
85035;SDS011;75357;49.780;9.448;2024-02-21T12:00:14;7.03;;;2.17;;
85035;SDS011;75357;49.780;9.448;2024-02-21T12:02:44;5.13;;;1.47;;
85035;SDS011;75357;49.780;9.448;2024-02-21T12:05:14;5.80;;;2.00;;
85035;SDS011;75357;49.780;9.448;2024-02-21T12:07:43;7.00;;;2.40;;
85035;SDS011;75357;49.780;9.448;2024-02-21T12:10:15;5.93;;;2.13;;
85035;SDS011;75357;49.780;9.448;2024-02-21T12:12:44;5.33;;;1.50;;
85035;SDS011;75357;49.780;9.448;2024-02-21T12:15:12;5.43;;;1.70;;
85035;SDS011;75357;49.780;9.448;2024-02-21T12:17:40;6.33;;;2.03;;
85035;SDS011;75357;49.780;9.448;2024-02-21T12:20:09;6.80;;;2.10;;
85035;SDS011;75357;49.780;9.448;2024-02-21T12:22:41;3.83;;;1.63;;
85035;SDS011;75357;49.780;9.448;2024-02-21T12:25:15;5.27;;;1.90;;
85035;SDS011;75357;49.780;9.448;2024-02-21T12:27:45;4.90;;;1.63;;
85035;SDS011;75357;49.780;9.448;2024-02-21T12:30:15;6.20;;;2.03;;
85035;SDS011;75357;49.780;9.448;2024-02-21T12:32:44;7.07;;;1.97;;
85035;SDS011;75357;49.780;9.448;2024-02-21T12:35:13;6.70;;;1.93;;
85035;SDS011;75357;49.780;9.448;2024-02-21T12:37:43;5.20;;;1.67;;
85035;SDS011;75357;49.780;9.448;2024-02-21T12:40:12;6.13;;;2.23;;
85035;SDS011;75357;49.780;9.448;2024-02-21T12:42:41;5.97;;;2.07;;
85035;SDS011;75357;49.780;9.448;2024-02-21T12:45:10;5.43;;;2.07;;
85035;SDS011;75357;49.780;9.448;2024-02-21T12:47:39;4.87;;;2.07;;
85035;SDS011;75357;49.780;9.448;2024-02-21T12:50:08;6.30;;;1.90;;
85035;SDS011;75357;49.780;9.448;2024-02-21T12:52:37;4.80;;;2.00;;
85035;SDS011;75357;49.780;9.448;2024-02-21T12:55:07;6.77;;;2.00;;
85035;SDS011;75357;49.780;9.448;2024-02-21T12:57:37;5.03;;;1.93;;
85035;SDS011;75357;49.780;9.448;2024-02-21T13:00:09;6.43;;;1.80;;
85035;SDS011;75357;49.780;9.448;2024-02-21T13:02:38;6.77;;;2.23;;
85035;SDS011;75357;49.780;9.448;2024-02-21T13:05:07;7.30;;;3.80;;
85035;SDS011;75357;49.780;9.448;2024-02-21T13:07:36;9.13;;;3.67;;
85035;SDS011;75357;49.780;9.448;2024-02-21T13:10:05;5.70;;;2.50;;
85035;SDS011;75357;49.780;9.448;2024-02-21T13:12:38;7.77;;;2.17;;
85035;SDS011;75357;49.780;9.448;2024-02-21T13:15:07;9.37;;;2.57;;
85035;SDS011;75357;49.780;9.448;2024-02-21T13:17:38;6.57;;;2.80;;
85035;SDS011;75357;49.780;9.448;2024-02-21T13:20:07;7.33;;;2.97;;
85035;SDS011;75357;49.780;9.448;2024-02-21T13:22:37;5.77;;;2.27;;
85035;SDS011;75357;49.780;9.448;2024-02-21T13:25:06;5.57;;;2.37;;
85035;SDS011;75357;49.780;9.448;2024-02-21T13:27:38;4.30;;;2.13;;
85035;SDS011;75357;49.780;9.448;2024-02-21T13:30:07;5.63;;;2.30;;
85035;SDS011;75357;49.780;9.448;2024-02-21T13:32:37;8.07;;;2.70;;
85035;SDS011;75357;49.780;9.448;2024-02-21T13:35:06;6.90;;;2.20;;
85035;SDS011;75357;49.780;9.448;2024-02-21T13:37:35;7.93;;;2.87;;
85035;SDS011;75357;49.780;9.448;2024-02-21T13:40:14;5.53;;;2.13;;
85035;SDS011;75357;49.780;9.448;2024-02-21T13:42:42;5.33;;;2.27;;
85035;SDS011;75357;49.780;9.448;2024-02-21T13:45:11;6.83;;;2.40;;
85035;SDS011;75357;49.780;9.448;2024-02-21T13:47:39;5.70;;;2.30;;
85035;SDS011;75357;49.780;9.448;2024-02-21T13:50:08;5.70;;;2.17;;
85035;SDS011;75357;49.780;9.448;2024-02-21T13:52:38;5.63;;;2.30;;
85035;SDS011;75357;49.780;9.448;2024-02-21T13:55:09;7.13;;;2.03;;
85035;SDS011;75357;49.780;9.448;2024-02-21T13:57:39;8.63;;;2.57;;
85035;SDS011;75357;49.780;9.448;2024-02-21T14:00:09;11.63;;;2.73;;
85035;SDS011;75357;49.780;9.448;2024-02-21T14:02:37;6.40;;;2.20;;
85035;SDS011;75357;49.780;9.448;2024-02-21T14:05:06;6.20;;;2.77;;
85035;SDS011;75357;49.780;9.448;2024-02-21T14:07:36;19.70;;;14.43;;
85035;SDS011;75357;49.780;9.448;2024-02-21T14:10:05;8.57;;;4.17;;
85035;SDS011;75357;49.780;9.448;2024-02-21T14:12:36;5.17;;;2.10;;
85035;SDS011;75357;49.780;9.448;2024-02-21T14:15:08;9.10;;;3.23;;
85035;SDS011;75357;49.780;9.448;2024-02-21T14:17:37;6.70;;;2.20;;
85035;SDS011;75357;49.780;9.448;2024-02-21T14:20:06;7.13;;;2.20;;
85035;SDS011;75357;49.780;9.448;2024-02-21T14:22:37;5.93;;;2.13;;
85035;SDS011;75357;49.780;9.448;2024-02-21T14:25:06;5.77;;;2.17;;
85035;SDS011;75357;49.780;9.448;2024-02-21T14:27:35;6.60;;;2.67;;
85035;SDS011;75357;49.780;9.448;2024-02-21T14:30:03;4.30;;;2.40;;
85035;SDS011;75357;49.780;9.448;2024-02-21T14:32:34;4.90;;;2.60;;
85035;SDS011;75357;49.780;9.448;2024-02-21T14:35:03;4.70;;;2.53;;
85035;SDS011;75357;49.780;9.448;2024-02-21T14:37:33;5.23;;;2.10;;
85035;SDS011;75357;49.780;9.448;2024-02-21T14:40:01;7.00;;;2.47;;
85035;SDS011;75357;49.780;9.448;2024-02-21T14:42:30;7.57;;;3.37;;
85035;SDS011;75357;49.780;9.448;2024-02-21T14:44:58;7.40;;;3.70;;
85035;SDS011;75357;49.780;9.448;2024-02-21T14:47:31;8.57;;;2.93;;
85035;SDS011;75357;49.780;9.448;2024-02-21T14:50:02;8.00;;;3.17;;
85035;SDS011;75357;49.780;9.448;2024-02-21T14:52:31;10.70;;;2.97;;